createdAt,value
2019-01-06T00:02:30.934Z,6.10
2019-01-06T00:05:21.074Z,6.00
2019-01-06T00:08:18.644Z,5.90
2019-01-06T00:11:16.463Z,6.00
2019-01-06T00:14:14.189Z,5.90
2019-01-06T00:17:05.508Z,5.80
2019-01-06T00:22:50.007Z,6.00
2019-01-06T00:25:41.945Z,6.00
2019-01-06T00:28:39.378Z,6.00
2019-01-06T00:31:50.579Z,5.90
2019-01-06T00:34:40.428Z,5.90
2019-01-06T00:37:34.819Z,5.80
2019-01-06T00:40:24.989Z,5.80
2019-01-06T00:43:19.269Z,5.90
2019-01-06T00:46:15.823Z,5.80
2019-01-06T00:49:25.548Z,5.90
2019-01-06T00:52:29.220Z,5.90
2019-01-06T00:55:32.498Z,5.80
2019-01-06T00:58:23.869Z,5.70
2019-01-06T01:01:13.769Z,5.70
2019-01-06T01:04:10.709Z,5.70
2019-01-06T01:07:19.763Z,5.70
2019-01-06T01:10:20.118Z,5.70
2019-01-06T01:13:12.879Z,5.70
2019-01-06T01:16:01.824Z,5.70
2019-01-06T01:19:02.428Z,5.70
2019-01-06T01:21:56.499Z,5.70
2019-01-06T01:24:54.678Z,5.70
2019-01-06T01:27:57.738Z,5.80
2019-01-06T01:30:55.083Z,5.90
2019-01-06T01:33:46.188Z,5.90
2019-01-06T01:36:40.281Z,5.80
2019-01-06T01:39:31.528Z,5.90
2019-01-06T01:42:22.924Z,5.80
2019-01-06T01:45:25.475Z,5.90
2019-01-06T01:48:28.549Z,5.90
2019-01-06T01:51:19.618Z,5.80
2019-01-06T01:54:29.438Z,5.90
2019-01-06T01:57:17.699Z,5.90
2019-01-06T02:00:07.703Z,6.00
2019-01-06T02:02:57.352Z,6.00
2019-01-06T02:05:53.958Z,5.90
2019-01-06T02:08:47.099Z,5.90
2019-01-06T02:11:40.784Z,5.90
2019-01-06T02:14:38.093Z,5.90
2019-01-06T02:17:27.068Z,5.90
2019-01-06T02:20:36.915Z,5.90
2019-01-06T02:23:43.453Z,5.90
2019-01-06T02:26:45.431Z,5.90
2019-01-06T02:29:42.514Z,5.80
2019-01-06T02:32:38.282Z,5.80
2019-01-06T02:35:36.909Z,5.70
2019-01-06T02:38:30.994Z,5.70
2019-01-06T02:41:24.813Z,5.70
2019-01-06T02:44:14.789Z,5.80
2019-01-06T02:50:13.053Z,5.70
2019-01-06T02:53:04.483Z,5.80
2019-01-06T02:55:54.114Z,5.80
2019-01-06T02:58:37.195Z,5.70
2019-01-06T03:01:34.344Z,5.70
2019-01-06T03:04:24.558Z,5.60
2019-01-06T03:07:16.349Z,5.50
2019-01-06T03:10:06.595Z,5.50
2019-01-06T03:12:57.628Z,5.50
2019-01-06T03:15:47.836Z,5.50
2019-01-06T03:18:47.774Z,5.50
2019-01-06T03:21:41.573Z,5.50
2019-01-06T03:24:37.669Z,5.50
2019-01-06T03:27:21.593Z,5.40
2019-01-06T03:30:15.663Z,5.50
2019-01-06T03:33:12.273Z,5.40
2019-01-06T03:36:01.000Z,5.50
2019-01-06T03:38:57.718Z,5.40
2019-01-06T03:41:54.674Z,5.50
2019-01-06T03:44:49.758Z,5.60
2019-01-06T03:47:53.169Z,5.50
2019-01-06T03:50:42.610Z,5.50
2019-01-06T03:53:32.649Z,5.50
2019-01-06T03:56:22.918Z,5.50
2019-01-06T03:59:14.085Z,5.50
2019-01-06T04:02:11.573Z,5.40
2019-01-06T04:05:17.814Z,5.50
2019-01-06T04:08:07.934Z,5.50
2019-01-06T04:10:57.827Z,5.50
2019-01-06T04:13:52.503Z,5.50
2019-01-06T04:16:55.479Z,5.40
2019-01-06T04:19:49.839Z,5.30
2019-01-06T04:22:39.445Z,5.40
2019-01-06T04:25:33.453Z,5.40
2019-01-06T04:28:39.962Z,5.30
2019-01-06T04:31:30.189Z,5.40
2019-01-06T04:34:36.773Z,5.40
2019-01-06T04:37:29.409Z,5.40
2019-01-06T04:40:26.263Z,5.30
2019-01-06T04:43:17.583Z,5.40
2019-01-06T04:46:11.749Z,5.40
2019-01-06T04:49:05.939Z,5.40
2019-01-06T04:51:57.089Z,5.50
2019-01-06T04:55:05.798Z,5.60
2019-01-06T04:57:59.975Z,5.60
2019-01-06T05:00:45.393Z,5.60
2019-01-06T05:03:39.409Z,5.60
2019-01-06T05:06:30.485Z,5.60
2019-01-06T05:09:20.215Z,5.70
2019-01-06T05:12:07.935Z,5.80
2019-01-06T05:14:57.288Z,5.70
2019-01-06T05:17:49.128Z,5.80
2019-01-06T05:20:46.410Z,5.80
2019-01-06T05:23:49.624Z,5.80
2019-01-06T05:26:39.375Z,5.90
2019-01-06T05:29:33.279Z,5.90
2019-01-06T05:32:30.464Z,5.90
2019-01-06T05:35:33.668Z,6.00
2019-01-06T05:38:24.710Z,6.10
2019-01-06T05:41:21.768Z,6.20
2019-01-06T05:44:25.441Z,6.20
2019-01-06T05:47:28.951Z,6.20
2019-01-06T05:50:14.676Z,6.30
2019-01-06T05:53:12.164Z,6.30
2019-01-06T05:56:01.834Z,6.30
2019-01-06T05:58:58.698Z,6.30
2019-01-06T06:02:01.910Z,6.30
2019-01-06T06:04:51.804Z,6.30
2019-01-06T06:07:51.914Z,6.30
2019-01-06T06:10:41.523Z,6.30
2019-01-06T06:13:35.414Z,6.30
2019-01-06T06:16:35.748Z,6.40
2019-01-06T06:19:29.674Z,6.40
2019-01-06T06:22:33.469Z,6.30
2019-01-06T06:25:24.839Z,6.40
2019-01-06T06:28:28.318Z,6.40
2019-01-06T06:31:22.413Z,6.60
2019-01-06T06:34:32.434Z,6.70
2019-01-06T06:37:30.828Z,6.70
2019-01-06T06:40:26.863Z,6.60
2019-01-06T06:43:20.971Z,6.80
2019-01-06T06:46:20.558Z,6.90
2019-01-06T06:49:11.523Z,7.10
2019-01-06T06:52:05.898Z,7.10
2019-01-06T06:55:14.409Z,7.20
2019-01-06T06:58:30.685Z,7.30
2019-01-06T07:01:27.674Z,7.40
2019-01-06T07:04:20.024Z,7.40
2019-01-06T07:07:10.745Z,7.40
2019-01-06T07:10:04.618Z,7.40
2019-01-06T07:12:54.451Z,7.50
2019-01-06T07:15:54.810Z,7.30
2019-01-06T07:18:45.069Z,7.20
2019-01-06T07:21:34.544Z,7.40
2019-01-06T07:24:28.498Z,7.60
2019-01-06T07:27:34.996Z,7.60
2019-01-06T07:30:35.315Z,7.50
2019-01-06T07:33:26.268Z,7.60
2019-01-06T07:36:36.858Z,7.70
2019-01-06T07:39:28.829Z,7.70
2019-01-06T07:42:28.051Z,7.70
2019-01-06T07:45:34.324Z,7.80
2019-01-06T07:48:25.444Z,7.90
2019-01-06T07:51:31.584Z,7.90
2019-01-06T07:54:40.449Z,7.60
2019-01-06T07:57:44.985Z,7.90
2019-01-06T08:00:53.944Z,7.80
2019-01-06T08:03:58.865Z,7.70
2019-01-06T08:07:05.424Z,7.60
2019-01-06T08:09:59.764Z,7.60
2019-01-06T08:12:50.549Z,7.60
2019-01-06T08:15:44.759Z,7.60
2019-01-06T08:18:51.198Z,7.70
2019-01-06T08:21:44.854Z,7.60
2019-01-06T08:24:35.049Z,7.90
2019-01-06T08:27:32.929Z,7.90
2019-01-06T08:30:27.999Z,7.80
2019-01-06T08:33:17.734Z,8.00
2019-01-06T08:36:07.248Z,8.10
2019-01-06T08:39:03.488Z,7.80
2019-01-06T08:41:53.575Z,7.80
2019-01-06T08:44:52.514Z,7.60
2019-01-06T08:47:46.275Z,7.40
2019-01-06T08:50:37.409Z,7.00
2019-01-06T08:53:35.349Z,7.00
2019-01-06T08:56:35.979Z,7.00
2019-01-06T08:59:44.079Z,6.90
2019-01-06T09:02:50.244Z,7.00
2019-01-06T09:05:42.124Z,7.00
2019-01-06T09:08:47.429Z,7.50
2019-01-06T09:11:40.779Z,7.60
2019-01-06T09:17:40.034Z,7.70
2019-01-06T09:20:31.909Z,7.70
2019-01-06T09:23:21.919Z,7.90
2019-01-06T09:26:28.709Z,8.00
2019-01-06T09:29:13.849Z,8.00
2019-01-06T09:32:07.339Z,7.80
2019-01-06T09:35:07.283Z,7.70
2019-01-06T09:38:06.058Z,7.80
2019-01-06T09:41:02.944Z,7.90
2019-01-06T09:44:01.614Z,8.00
2019-01-06T09:46:54.234Z,7.90
2019-01-06T09:50:03.549Z,7.80
2019-01-06T09:53:05.699Z,8.10
2019-01-06T09:56:03.729Z,7.80
2019-01-06T09:59:04.143Z,7.50
2019-01-06T10:01:59.714Z,7.90
2019-01-06T10:04:59.524Z,8.10
2019-01-06T10:07:51.449Z,8.40
2019-01-06T10:10:42.583Z,8.20
2019-01-06T10:13:46.269Z,8.20
2019-01-06T10:16:49.587Z,8.40
2019-01-06T10:19:46.699Z,8.40
2019-01-06T10:22:36.563Z,8.10
2019-01-06T10:25:27.878Z,8.30
2019-01-06T10:28:17.889Z,8.20
2019-01-06T10:31:19.556Z,8.30
2019-01-06T10:34:27.440Z,8.30
2019-01-06T10:37:18.334Z,8.30
2019-01-06T10:40:08.424Z,8.40
2019-01-06T10:43:06.364Z,8.40
2019-01-06T10:46:00.173Z,8.30
2019-01-06T10:48:52.789Z,8.00
2019-01-06T10:51:46.274Z,7.80
2019-01-06T10:54:37.969Z,7.90
2019-01-06T10:57:27.754Z,8.00
2019-01-06T11:00:21.935Z,8.10
2019-01-06T11:03:11.724Z,8.10
2019-01-06T11:06:01.806Z,7.90
2019-01-06T11:08:59.461Z,8.00
2019-01-06T11:11:51.629Z,8.10
2019-01-06T11:14:42.350Z,8.10
2019-01-06T11:17:37.599Z,8.00
2019-01-06T11:20:37.939Z,8.20
2019-01-06T11:23:38.849Z,8.10
2019-01-06T11:26:29.286Z,8.00
2019-01-06T11:29:09.403Z,8.00
2019-01-06T11:32:09.548Z,8.10
2019-01-06T11:35:16.189Z,8.00
2019-01-06T11:38:05.953Z,8.20
2019-01-06T11:41:09.684Z,8.10
2019-01-06T11:44:04.584Z,8.10
2019-01-06T11:46:55.803Z,8.10
2019-01-06T11:50:03.949Z,8.10
2019-01-06T11:53:06.499Z,8.00
2019-01-06T11:55:56.463Z,8.00
2019-01-06T11:58:59.294Z,8.20
2019-01-06T12:01:42.204Z,8.00
2019-01-06T12:04:31.889Z,8.20
2019-01-06T12:07:21.726Z,8.10
2019-01-06T12:10:14.849Z,7.90
2019-01-06T12:13:06.921Z,7.70
2019-01-06T12:16:06.889Z,7.60
2019-01-06T12:18:58.379Z,7.60
2019-01-06T12:21:52.834Z,7.50
2019-01-06T12:24:43.103Z,7.60
2019-01-06T12:27:33.689Z,7.70
2019-01-06T12:30:28.629Z,7.70
2019-01-06T12:33:38.299Z,7.80
2019-01-06T12:36:28.849Z,7.60
2019-01-06T12:39:19.674Z,7.60
2019-01-06T12:42:12.044Z,7.70
2019-01-06T12:45:02.189Z,7.70
2019-01-06T12:47:52.274Z,7.70
2019-01-06T12:51:02.199Z,7.80
2019-01-06T12:54:01.304Z,7.90
2019-01-06T12:56:51.148Z,7.80
2019-01-06T12:59:47.984Z,7.80
2019-01-06T13:02:43.754Z,7.70
2019-01-06T13:05:33.359Z,7.50
2019-01-06T13:08:24.609Z,7.60
2019-01-06T13:11:15.740Z,7.70
2019-01-06T13:14:06.415Z,7.60
2019-01-06T13:17:06.640Z,7.60
2019-01-06T13:19:56.923Z,7.60
2019-01-06T13:22:54.195Z,7.50
2019-01-06T13:25:44.560Z,7.40
2019-01-06T13:28:52.069Z,7.50
2019-01-06T13:31:57.401Z,7.40
2019-01-06T13:34:47.040Z,7.40
2019-01-06T13:37:50.578Z,7.40
2019-01-06T13:40:40.778Z,7.40
2019-01-06T13:43:37.990Z,7.40
2019-01-06T13:46:34.560Z,7.40
2019-01-06T13:49:36.669Z,7.50
2019-01-06T13:52:35.479Z,7.40
2019-01-06T13:55:25.740Z,7.30
2019-01-06T13:58:15.796Z,7.40
2019-01-06T14:03:55.904Z,7.30
2019-01-06T14:09:47.079Z,7.30
2019-01-06T14:12:37.352Z,7.30
2019-01-06T14:15:27.534Z,7.30
2019-01-06T14:18:14.663Z,7.20
2019-01-06T14:21:06.298Z,7.20
2019-01-06T14:24:07.829Z,7.10
2019-01-06T14:27:10.973Z,7.10
2019-01-06T14:30:05.758Z,7.10
2019-01-06T14:33:01.124Z,7.00
2019-01-06T14:35:46.694Z,7.00
2019-01-06T14:38:37.079Z,6.90
2019-01-06T14:41:24.689Z,6.90
2019-01-06T14:44:31.024Z,6.80
2019-01-06T14:47:22.320Z,6.90
2019-01-06T14:50:22.918Z,6.70
2019-01-06T14:53:29.644Z,6.60
2019-01-06T14:56:19.528Z,6.60
2019-01-06T14:59:04.334Z,6.80
2019-01-06T15:01:58.784Z,6.60
2019-01-06T15:04:48.870Z,6.60
2019-01-06T15:07:39.924Z,6.60
2019-01-06T15:10:31.036Z,6.70
2019-01-06T15:13:32.849Z,6.80
2019-01-06T15:16:24.359Z,6.80
2019-01-06T15:19:33.489Z,6.60
2019-01-06T15:22:33.508Z,6.60
2019-01-06T15:25:23.589Z,6.50
2019-01-06T15:28:21.889Z,6.50
2019-01-06T15:31:11.449Z,6.50
2019-01-06T15:34:08.809Z,6.50
2019-01-06T15:36:58.909Z,6.40
2019-01-06T15:39:49.986Z,6.30
2019-01-06T15:42:39.544Z,6.40
2019-01-06T15:48:32.684Z,6.70
2019-01-06T15:51:29.884Z,6.70
2019-01-06T15:54:21.529Z,6.50
2019-01-06T15:57:25.118Z,6.50
2019-01-06T16:00:16.534Z,6.60
2019-01-06T16:03:23.474Z,6.50
2019-01-06T16:06:19.694Z,6.70
2019-01-06T16:09:10.276Z,6.50
2019-01-06T16:12:00.309Z,6.50
2019-01-06T16:14:55.549Z,6.50
2019-01-06T16:17:49.814Z,6.60
2019-01-06T16:20:40.979Z,6.70
2019-01-06T16:23:30.964Z,6.50
2019-01-06T16:26:34.345Z,6.60
2019-01-06T16:29:23.768Z,6.60
2019-01-06T16:32:15.629Z,6.60
2019-01-06T16:35:15.984Z,6.50
2019-01-06T16:38:13.113Z,6.60
2019-01-06T16:41:02.744Z,6.60
2019-01-06T16:44:09.808Z,6.30
2019-01-06T16:47:19.539Z,6.40
2019-01-06T16:50:09.954Z,6.60
2019-01-06T16:52:59.729Z,6.60
2019-01-06T16:56:04.523Z,6.50
2019-01-06T16:59:02.454Z,6.60
2019-01-06T17:02:06.554Z,6.50
2019-01-06T17:05:11.173Z,6.60
2019-01-06T17:08:08.978Z,6.40
2019-01-06T17:11:06.859Z,6.40
2019-01-06T17:13:56.525Z,6.40
2019-01-06T17:16:47.924Z,6.30
2019-01-06T17:19:37.363Z,6.30
2019-01-06T17:22:31.108Z,6.50
2019-01-06T17:25:28.754Z,6.40
2019-01-06T17:28:18.915Z,6.40
2019-01-06T17:31:17.805Z,6.40
2019-01-06T17:34:20.900Z,6.50
2019-01-06T17:37:27.874Z,6.50
2019-01-06T17:40:18.875Z,6.30
2019-01-06T17:43:11.948Z,6.00
2019-01-06T17:46:18.359Z,6.10
2019-01-06T17:49:09.146Z,5.90
2019-01-06T17:51:59.089Z,5.80
2019-01-06T17:54:48.754Z,5.70
2019-01-06T17:57:38.659Z,5.80
2019-01-06T18:00:26.626Z,5.90
2019-01-06T18:03:21.864Z,6.00
2019-01-06T18:06:15.834Z,5.70
2019-01-06T18:09:05.644Z,5.40
2019-01-06T18:12:03.249Z,5.10
2019-01-06T18:14:53.928Z,4.70
2019-01-06T18:17:48.513Z,4.70
2019-01-06T18:20:38.084Z,5.30
2019-01-06T18:23:35.894Z,5.50
2019-01-06T18:26:29.934Z,5.60
2019-01-06T18:29:33.103Z,5.60
2019-01-06T18:32:23.433Z,5.70
2019-01-06T18:35:29.907Z,5.90
2019-01-06T18:38:19.669Z,6.00
2019-01-06T18:41:20.443Z,6.00
2019-01-06T18:44:10.798Z,5.80
2019-01-06T18:47:07.598Z,5.80
2019-01-06T18:50:04.498Z,5.80
2019-01-06T18:52:54.119Z,5.80
2019-01-06T18:55:43.295Z,5.70
2019-01-06T18:58:38.183Z,5.70
2019-01-06T19:01:28.856Z,5.70
2019-01-06T19:04:18.879Z,5.70
2019-01-06T19:07:18.969Z,5.60
2019-01-06T19:10:09.914Z,5.40
2019-01-06T19:13:18.138Z,5.10
2019-01-06T19:15:58.692Z,5.10
2019-01-06T19:18:59.296Z,5.20
2019-01-06T19:21:59.164Z,5.10
2019-01-06T19:27:28.108Z,4.40
2019-01-06T19:30:19.465Z,4.20
2019-01-06T19:33:14.087Z,4.10
2019-01-06T19:36:05.114Z,4.10
2019-01-06T19:38:57.908Z,4.10
2019-01-06T19:41:48.809Z,4.00
2019-01-06T19:44:39.781Z,3.70
2019-01-06T19:47:29.968Z,3.70
2019-01-06T19:50:19.819Z,3.60
2019-01-06T19:53:10.203Z,3.70
2019-01-06T19:56:04.629Z,3.90
2019-01-06T19:58:58.734Z,4.10
2019-01-06T20:01:49.824Z,4.50
2019-01-06T20:04:37.174Z,4.50
2019-01-06T20:07:32.789Z,4.70
2019-01-06T20:10:23.314Z,4.40
2019-01-06T20:13:14.216Z,4.50
2019-01-06T20:16:04.543Z,4.20
2019-01-06T20:18:55.004Z,3.90
2019-01-06T20:21:47.964Z,3.90
2019-01-06T20:24:38.289Z,3.90
2019-01-06T20:27:38.564Z,3.80
2019-01-06T20:30:28.564Z,3.70
2019-01-06T20:33:35.173Z,3.70
2019-01-06T20:36:26.743Z,3.80
2019-01-06T20:39:21.429Z,3.90
2019-01-06T20:42:11.699Z,3.90
2019-01-06T20:45:02.061Z,3.70
2019-01-06T20:47:58.948Z,3.60
2019-01-06T20:50:48.654Z,3.30
2019-01-06T20:53:48.784Z,3.20
2019-01-06T20:56:46.093Z,3.10
2019-01-06T20:59:37.553Z,2.80
2019-01-06T21:02:41.444Z,2.50
2019-01-06T21:05:35.799Z,2.10
2019-01-06T21:08:25.613Z,2.20
2019-01-06T21:11:11.245Z,2.00
2019-01-06T21:14:02.230Z,2.00
2019-01-06T21:16:56.858Z,1.80
2019-01-06T21:19:49.194Z,1.90
2019-01-06T21:22:41.289Z,1.90
2019-01-06T21:25:33.889Z,1.70
2019-01-06T21:28:25.369Z,1.90
2019-01-06T21:31:23.563Z,1.90
2019-01-06T21:34:13.774Z,2.10
2019-01-06T21:37:14.086Z,2.20
2019-01-06T21:40:04.306Z,2.30
2019-01-06T21:42:55.708Z,2.40
2019-01-06T21:45:45.789Z,2.40
2019-01-06T21:48:54.825Z,2.40
2019-01-06T21:51:51.849Z,2.70
2019-01-06T21:54:50.149Z,2.80
2019-01-06T21:57:41.054Z,2.80
2019-01-06T22:00:28.678Z,3.00
2019-01-06T22:03:15.283Z,2.90
2019-01-06T22:06:06.009Z,2.90
2019-01-06T22:09:09.058Z,3.00
2019-01-06T22:11:58.329Z,2.80
2019-01-06T22:14:54.248Z,2.70
2019-01-06T22:18:03.719Z,2.80
2019-01-06T22:21:03.849Z,2.70
2019-01-06T22:23:59.904Z,2.80
2019-01-06T22:26:55.083Z,2.90
2019-01-06T22:29:44.355Z,3.10
2019-01-06T22:32:44.643Z,3.10
2019-01-06T22:35:34.245Z,3.20
2019-01-06T22:38:23.639Z,3.30
2019-01-06T22:41:19.334Z,3.20
2019-01-06T22:44:15.914Z,3.20
2019-01-06T22:47:10.369Z,3.20
2019-01-06T22:49:58.023Z,3.20
2019-01-06T22:52:48.348Z,3.10
2019-01-06T22:55:38.728Z,3.10
2019-01-06T22:58:45.038Z,3.20
2019-01-06T23:01:39.694Z,3.20
2019-01-06T23:04:39.858Z,3.10
2019-01-06T23:07:46.319Z,3.20
2019-01-06T23:10:40.403Z,3.10
2019-01-06T23:13:34.279Z,3.10
2019-01-06T23:16:30.798Z,3.30
2019-01-06T23:19:34.369Z,3.30
2019-01-06T23:22:28.508Z,3.30
2019-01-06T23:25:16.033Z,3.20
2019-01-06T23:28:12.883Z,3.30
2019-01-06T23:31:11.894Z,3.50
2019-01-06T23:34:12.299Z,3.50
2019-01-06T23:37:06.283Z,3.80
2019-01-06T23:40:12.953Z,3.90
2019-01-06T23:43:07.114Z,4.00
2019-01-06T23:46:10.339Z,4.00
2019-01-06T23:49:15.383Z,4.10
2019-01-06T23:52:04.969Z,4.10
2019-01-06T23:54:59.429Z,4.30
2019-01-06T23:57:56.259Z,4.20
